Kunszentmarton, Hungary
Current Conditions -  °F | °C
As of 9:34 AM on Friday 31 Oct 2014 (Local Time) from LHSN Reporting Station
Haze Haze  
Wind Chill: 41°   Ceiling: Unl
Heat Index: 41°   Visibility: 0.93mi
Dew Point: 39°   Wind: 2mph
Humidity: 93%   Direction: 10°N
Pressure: 30.33"   Gusts: NA
Location:  46.84°N, 20.29°E
Report Text: LHSN 310734Z 01001MPS 1500 BR FEW200 05/04 Q1027 RMK AMB
Loading
Personal Weather Stations






























Interactive Weather Map
Tropical Storm Tracking
New forecast layout! Learn more

10-Day Weather Forecast

Advertisements
Track Severe Weather on mobile